地図

経路データ

SID SEASON NUMBER BASIN SUBBASIN NAME ISO_TIME NATURE LAT LON WMO_WIND WMO_PRES WMO_AGENCY TRACK_TYPE DIST2LAND LANDFALL IFLAG USA_AGENCY USA_ATCF_ID USA_LAT USA_LON USA_RECORD USA_STATUS USA_WIND USA_PRES USA_SSHS USA_R34_NE USA_R34_SE USA_R34_SW USA_R34_NW USA_R50_NE USA_R50_SE USA_R50_SW USA_R50_NW USA_R64_NE USA_R64_SE USA_R64_SW USA_R64_NW USA_POCI USA_ROCI USA_RMW USA_EYE TOKYO_LAT TOKYO_LON TOKYO_GRADE TOKYO_WIND TOKYO_PRES TOKYO_R50_DIR TOKYO_R50_LONG TOKYO_R50_SHORT TOKYO_R30_DIR TOKYO_R30_LONG TOKYO_R30_SHORT TOKYO_LAND CMA_LAT CMA_LON CMA_CAT CMA_WIND CMA_PRES HKO_LAT HKO_LON HKO_CAT HKO_WIND HKO_PRES NEWDELHI_LAT NEWDELHI_LON NEWDELHI_GRADE NEWDELHI_WIND NEWDELHI_PRES NEWDELHI_CI NEWDELHI_DP NEWDELHI_POCI REUNION_LAT REUNION_LON REUNION_TYPE REUNION_WIND REUNION_PRES REUNION_TNUM REUNION_CI REUNION_RMW REUNION_R34_NE REUNION_R34_SE REUNION_R34_SW REUNION_R34_NW REUNION_R50_NE REUNION_R50_SE REUNION_R50_SW REUNION_R50_NW REUNION_R64_NE REUNION_R64_SE REUNION_R64_SW REUNION_R64_NW BOM_LAT BOM_LON BOM_TYPE BOM_WIND BOM_PRES BOM_TNUM BOM_CI BOM_RMW BOM_R34_NE BOM_R34_SE BOM_R34_SW BOM_R34_NW BOM_R50_NE BOM_R50_SE BOM_R50_SW BOM_R50_NW BOM_R64_NE BOM_R64_SE BOM_R64_SW BOM_R64_NW BOM_ROCI BOM_POCI BOM_EYE BOM_POS_METHOD BOM_PRES_METHOD NADI_LAT NADI_LON NADI_CAT NADI_WIND NADI_PRES WELLINGTON_LAT WELLINGTON_LON WELLINGTON_WIND WELLINGTON_PRES DS824_LAT DS824_LON DS824_STAGE DS824_WIND DS824_PRES TD9636_LAT TD9636_LON TD9636_STAGE TD9636_WIND TD9636_PRES TD9635_LAT TD9635_LON TD9635_WIND TD9635_PRES TD9635_ROCI NEUMANN_LAT NEUMANN_LON NEUMANN_CLASS NEUMANN_WIND NEUMANN_PRES MLC_LAT MLC_LON MLC_CLASS MLC_WIND MLC_PRES USA_GUST BOM_GUST BOM_GUST_PER REUNION_GUST REUNION_GUST_PER USA_SEAHGT USA_SEARAD_NE USA_SEARAD_SE USA_SEARAD_SW USA_SEARAD_NW STORM_SPEED STORM_DIR
1907247N21127 1907 46 WP MM NOT_NAMED 1907-09-03 16:00:00 NR 20.5000 127.200 main 564 564 __________O___ -1 20.5000 127.200 7 6 347
1907247N21127 1907 46 WP MM NOT_NAMED 1907-09-03 18:00:00 NR 20.6768 127.151 main 574 564 __________P___ -1 20.6768 127.151 7 6 347
1907247N21127 1907 46 WP MM NOT_NAMED 1907-09-03 21:00:00 NR 20.9445 127.090 main 575 580 __________P___ -1 20.9445 127.090 7 6 351
1907247N21127 1907 46 WP MM NOT_NAMED 1907-09-04 00:00:00 NR 21.2184 127.060 main 591 591 __________P___ -1 21.2184 127.060 7 6 358
1907247N21127 1907 46 WP MM NOT_NAMED 1907-09-04 03:00:00 NR 21.5024 127.079 main 609 609 __________P___ -1 21.5024 127.079 7 6 6
1907247N21127 1907 46 WP MM NOT_NAMED 1907-09-04 04:00:00 NR 21.6000 127.100 main 609 606 __________O___ -1 21.6000 127.100 7 6 14
1907247N21127 1907 46 WP MM NOT_NAMED 1907-09-04 06:00:00 NR 21.7996 127.165 main 613 607 __________P___ -1 21.7996 127.165 7 7 21
1907247N21127 1907 46 WP MM NOT_NAMED 1907-09-04 09:00:00 NR 22.1054 127.307 main 612 607 __________P___ -1 22.1054 127.307 7 7 25
1907247N21127 1907 46 WP MM NOT_NAMED 1907-09-04 12:00:00 NR 22.4105 127.477 main 617 612 __________P___ -1 22.4105 127.477 7 7 28
1907247N21127 1907 46 WP MM NOT_NAMED 1907-09-04 15:00:00 NR 22.7055 127.648 main 614 620 __________P___ -1 22.7055 127.648 7 7 28
1907247N21127 1907 46 WP MM NOT_NAMED 1907-09-04 16:00:00 NR 22.8000 127.700 main 620 616 __________O___ -1 22.8000 127.700 7 6 22
1907247N21127 1907 46 WP MM NOT_NAMED 1907-09-04 18:00:00 NR 22.9648 127.763 main 623 616 __________P___ -1 22.9648 127.763 7 5 18
1907247N21127 1907 46 WP MM NOT_NAMED 1907-09-04 21:00:00 NR 23.1992 127.844 main 616 616 __________P___ -1 23.1992 127.844 7 5 18
1907247N21127 1907 46 WP MM NOT_NAMED 1907-09-05 00:00:00 NR 23.4377 127.931 main 621 619 __________P___ -1 23.4377 127.931 7 5 21
1907247N21127 1907 46 WP MM NOT_NAMED 1907-09-05 03:00:00 NR 23.7022 128.049 main 624 631 __________P___ -1 23.7022 128.049 7 6 23
1907247N21127 1907 46 WP MM NOT_NAMED 1907-09-05 04:00:00 NR 23.8000 128.100 main 631 629 __________O___ -1 23.8000 128.100 7 7 29
1907247N21127 1907 46 WP MM NOT_NAMED 1907-09-05 06:00:00 NR 24.0190 128.237 main 636 636 __________P___ -1 24.0190 128.237 7 8 31
1907247N21127 1907 46 WP MM NOT_NAMED 1907-09-05 09:00:00 NR 24.3789 128.482 main 659 658 __________P___ -1 24.3789 128.482 7 9 32
1907247N21127 1907 46 WP MM NOT_NAMED 1907-09-05 12:00:00 NR 24.7652 128.749 main 675 668 __________P___ -1 24.7652 128.749 7 9 32
1907247N21127 1907 46 WP MM NOT_NAMED 1907-09-05 15:00:00 NR 25.1656 129.016 main 668 655 __________P___ -1 25.1656 129.016 7 9 31
1907247N21127 1907 46 WP MM NOT_NAMED 1907-09-05 16:00:00 NR 25.3000 129.100 main 655 618 __________O___ -1 25.3000 129.100 3 9 28
1907247N21127 1907 46 WP MM NOT_NAMED 1907-09-05 18:00:00 NR 25.5682 129.257 main 618 570 __________P___ -1 25.5682 129.257 3 9 26
1907247N21127 1907 46 WP MM NOT_NAMED 1907-09-05 21:00:00 NR 25.9691 129.469 main 570 522 __________P___ -1 25.9691 129.469 3 9 24
1907247N21127 1907 46 WP MM NOT_NAMED 1907-09-06 00:00:00 NR 26.3686 129.661 main 522 476 __________P___ -1 26.3686 129.661 3 9 23
1907247N21127 1907 46 WP MM NOT_NAMED 1907-09-06 03:00:00 NR 26.7672 129.841 main 476 464 __________P___ -1 26.7672 129.841 3 9 22
1907247N21127 1907 46 WP MM NOT_NAMED 1907-09-06 04:00:00 NR 26.9000 129.900 main 464 __________O___ -1 26.9000 129.900 4 9 21

デジタル台風データ・検索

IBTrACS Databaseについて

本データベースは、米国NOAAが公開する1842年以降の世界の熱帯低気圧のベストトラックデータアーカイブInternational Best Track Archive for Climate Stewardship (IBTrACS)を、ウェブで閲覧しやすい形式に変換したものです。

最終更新日:2021-12-01